sensor_id;sensor_type;location;lat;lon;timestamp;temperature;humidity
13462;DHT22;6803;45.264;5.468;2022-09-27T00:00:02;11.50;99.90
13462;DHT22;6803;45.264;5.468;2022-09-27T00:02:33;11.50;99.90
13462;DHT22;6803;45.264;5.468;2022-09-27T00:05:05;11.60;99.90
13462;DHT22;6803;45.264;5.468;2022-09-27T00:07:35;11.50;99.90
13462;DHT22;6803;45.264;5.468;2022-09-27T00:10:08;11.60;99.90
13462;DHT22;6803;45.264;5.468;2022-09-27T00:12:40;11.60;99.90
13462;DHT22;6803;45.264;5.468;2022-09-27T00:15:11;11.70;99.90
13462;DHT22;6803;45.264;5.468;2022-09-27T00:17:41;11.50;99.90
13462;DHT22;6803;45.264;5.468;2022-09-27T00:20:12;11.60;99.90
13462;DHT22;6803;45.264;5.468;2022-09-27T00:22:43;11.70;99.90
13462;DHT22;6803;45.264;5.468;2022-09-27T00:25:14;11.60;99.90
13462;DHT22;6803;45.264;5.468;2022-09-27T00:27:45;11.60;99.90
13462;DHT22;6803;45.264;5.468;2022-09-27T00:30:16;11.60;99.90
13462;DHT22;6803;45.264;5.468;2022-09-27T00:32:47;11.60;99.90
13462;DHT22;6803;45.264;5.468;2022-09-27T00:35:18;11.60;99.90
13462;DHT22;6803;45.264;5.468;2022-09-27T00:37:48;11.60;99.90
13462;DHT22;6803;45.264;5.468;2022-09-27T00:40:20;11.70;99.90
13462;DHT22;6803;45.264;5.468;2022-09-27T00:42:52;11.70;99.90
13462;DHT22;6803;45.264;5.468;2022-09-27T00:45:23;11.60;99.90
13462;DHT22;6803;45.264;5.468;2022-09-27T00:47:55;11.60;99.90
13462;DHT22;6803;45.264;5.468;2022-09-27T00:50:30;11.60;99.90
13462;DHT22;6803;45.264;5.468;2022-09-27T00:53:09;11.60;99.90
13462;DHT22;6803;45.264;5.468;2022-09-27T00:55:43;11.60;99.90
13462;DHT22;6803;45.264;5.468;2022-09-27T00:58:16;11.70;99.90
13462;DHT22;6803;45.264;5.468;2022-09-27T01:00:51;11.60;99.90
13462;DHT22;6803;45.264;5.468;2022-09-27T01:03:27;11.60;99.90
13462;DHT22;6803;45.264;5.468;2022-09-27T01:05:58;11.60;99.90
13462;DHT22;6803;45.264;5.468;2022-09-27T01:08:29;11.60;99.90
13462;DHT22;6803;45.264;5.468;2022-09-27T01:11:08;11.60;99.90
13462;DHT22;6803;45.264;5.468;2022-09-27T01:13:43;11.60;99.90
13462;DHT22;6803;45.264;5.468;2022-09-27T01:16:19;11.60;99.90
13462;DHT22;6803;45.264;5.468;2022-09-27T01:18:57;11.50;99.90
13462;DHT22;6803;45.264;5.468;2022-09-27T01:21:37;11.60;99.90
13462;DHT22;6803;45.264;5.468;2022-09-27T01:24:19;11.60;99.90
13462;DHT22;6803;45.264;5.468;2022-09-27T01:27:30;11.60;99.90
13462;DHT22;6803;45.264;5.468;2022-09-27T01:30:17;11.60;99.90
13462;DHT22;6803;45.264;5.468;2022-09-27T01:32:57;11.60;99.90
13462;DHT22;6803;45.264;5.468;2022-09-27T01:35:49;11.60;99.90
13462;DHT22;6803;45.264;5.468;2022-09-27T01:38:25;11.60;99.90
13462;DHT22;6803;45.264;5.468;2022-09-27T01:40:59;11.60;99.90
13462;DHT22;6803;45.264;5.468;2022-09-27T01:43:33;11.60;99.90
13462;DHT22;6803;45.264;5.468;2022-09-27T01:46:07;11.60;99.90
13462;DHT22;6803;45.264;5.468;2022-09-27T01:48:40;11.70;99.90
13462;DHT22;6803;45.264;5.468;2022-09-27T01:51:14;11.70;99.90
13462;DHT22;6803;45.264;5.468;2022-09-27T01:53:47;11.70;99.90
13462;DHT22;6803;45.264;5.468;2022-09-27T01:59:02;11.60;99.90
13462;DHT22;6803;45.264;5.468;2022-09-27T02:01:34;11.60;99.90
13462;DHT22;6803;45.264;5.468;2022-09-27T02:04:08;11.60;99.90
13462;DHT22;6803;45.264;5.468;2022-09-27T02:06:42;11.60;99.90
13462;DHT22;6803;45.264;5.468;2022-09-27T02:09:16;11.70;99.90
13462;DHT22;6803;45.264;5.468;2022-09-27T02:11:50;11.60;99.90
13462;DHT22;6803;45.264;5.468;2022-09-27T02:14:26;11.60;99.90
13462;DHT22;6803;45.264;5.468;2022-09-27T02:17:03;11.60;99.90
13462;DHT22;6803;45.264;5.468;2022-09-27T02:19:36;11.50;99.90
13462;DHT22;6803;45.264;5.468;2022-09-27T02:22:14;11.50;99.90
13462;DHT22;6803;45.264;5.468;2022-09-27T02:24:47;11.50;99.90
13462;DHT22;6803;45.264;5.468;2022-09-27T02:27:21;11.60;99.90
13462;DHT22;6803;45.264;5.468;2022-09-27T02:29:57;11.60;99.90
13462;DHT22;6803;45.264;5.468;2022-09-27T02:32:27;11.50;99.90
13462;DHT22;6803;45.264;5.468;2022-09-27T02:35:01;11.60;99.90
13462;DHT22;6803;45.264;5.468;2022-09-27T02:37:32;11.60;99.90
13462;DHT22;6803;45.264;5.468;2022-09-27T02:40:03;11.50;99.90
13462;DHT22;6803;45.264;5.468;2022-09-27T02:42:35;11.50;99.90
13462;DHT22;6803;45.264;5.468;2022-09-27T02:45:09;11.50;99.90
13462;DHT22;6803;45.264;5.468;2022-09-27T02:47:58;11.50;99.90
13462;DHT22;6803;45.264;5.468;2022-09-27T02:50:43;11.50;99.90
13462;DHT22;6803;45.264;5.468;2022-09-27T02:53:19;11.50;99.90
13462;DHT22;6803;45.264;5.468;2022-09-27T02:55:54;11.50;99.90
13462;DHT22;6803;45.264;5.468;2022-09-27T02:58:30;11.40;99.90
13462;DHT22;6803;45.264;5.468;2022-09-27T03:01:03;11.40;99.90
13462;DHT22;6803;45.264;5.468;2022-09-27T03:03:38;11.40;99.90
13462;DHT22;6803;45.264;5.468;2022-09-27T03:06:10;11.40;99.90
13462;DHT22;6803;45.264;5.468;2022-09-27T03:08:41;11.50;99.90
13462;DHT22;6803;45.264;5.468;2022-09-27T03:11:13;11.40;99.90
13462;DHT22;6803;45.264;5.468;2022-09-27T03:13:44;11.40;99.90
13462;DHT22;6803;45.264;5.468;2022-09-27T03:16:16;11.40;99.90
13462;DHT22;6803;45.264;5.468;2022-09-27T03:18:47;11.40;99.90
13462;DHT22;6803;45.264;5.468;2022-09-27T03:21:18;11.40;99.90
13462;DHT22;6803;45.264;5.468;2022-09-27T03:23:48;11.40;99.90
13462;DHT22;6803;45.264;5.468;2022-09-27T03:26:19;11.40;99.90
13462;DHT22;6803;45.264;5.468;2022-09-27T03:28:50;11.40;99.90
13462;DHT22;6803;45.264;5.468;2022-09-27T03:31:20;11.40;99.90
13462;DHT22;6803;45.264;5.468;2022-09-27T03:33:51;11.40;99.90
13462;DHT22;6803;45.264;5.468;2022-09-27T03:36:22;11.40;99.90
13462;DHT22;6803;45.264;5.468;2022-09-27T03:38:53;11.40;99.90
13462;DHT22;6803;45.264;5.468;2022-09-27T03:41:23;11.30;99.90
13462;DHT22;6803;45.264;5.468;2022-09-27T03:43:54;11.30;99.90
13462;DHT22;6803;45.264;5.468;2022-09-27T03:46:26;11.30;99.90
13462;DHT22;6803;45.264;5.468;2022-09-27T03:48:57;11.30;99.90
13462;DHT22;6803;45.264;5.468;2022-09-27T03:51:27;11.40;99.90
13462;DHT22;6803;45.264;5.468;2022-09-27T03:53:58;11.40;99.90
13462;DHT22;6803;45.264;5.468;2022-09-27T03:56:29;11.30;99.90
13462;DHT22;6803;45.264;5.468;2022-09-27T03:59:00;11.20;99.90
13462;DHT22;6803;45.264;5.468;2022-09-27T04:01:31;11.20;99.90
13462;DHT22;6803;45.264;5.468;2022-09-27T04:04:03;11.20;99.90
13462;DHT22;6803;45.264;5.468;2022-09-27T04:06:36;11.20;99.90
13462;DHT22;6803;45.264;5.468;2022-09-27T04:09:06;11.20;99.90
13462;DHT22;6803;45.264;5.468;2022-09-27T04:11:37;11.20;99.90
13462;DHT22;6803;45.264;5.468;2022-09-27T04:14:08;11.20;99.90
13462;DHT22;6803;45.264;5.468;2022-09-27T04:16:40;11.20;99.90
13462;DHT22;6803;45.264;5.468;2022-09-27T04:19:11;11.20;99.90
13462;DHT22;6803;45.264;5.468;2022-09-27T04:21:42;11.20;99.90
13462;DHT22;6803;45.264;5.468;2022-09-27T04:24:12;11.20;99.90
13462;DHT22;6803;45.264;5.468;2022-09-27T04:26:43;11.20;99.90
13462;DHT22;6803;45.264;5.468;2022-09-27T04:29:14;11.30;99.90
13462;DHT22;6803;45.264;5.468;2022-09-27T04:31:45;11.30;99.90
13462;DHT22;6803;45.264;5.468;2022-09-27T04:34:16;11.30;99.90
13462;DHT22;6803;45.264;5.468;2022-09-27T04:36:46;11.30;99.90
13462;DHT22;6803;45.264;5.468;2022-09-27T04:39:17;11.30;99.90
13462;DHT22;6803;45.264;5.468;2022-09-27T04:41:48;11.20;99.90
13462;DHT22;6803;45.264;5.468;2022-09-27T04:44:19;11.10;99.90
13462;DHT22;6803;45.264;5.468;2022-09-27T04:46:50;11.20;99.90
13462;DHT22;6803;45.264;5.468;2022-09-27T04:49:21;11.20;99.90
13462;DHT22;6803;45.264;5.468;2022-09-27T04:51:51;11.20;99.90
13462;DHT22;6803;45.264;5.468;2022-09-27T04:54:22;11.20;99.90
13462;DHT22;6803;45.264;5.468;2022-09-27T04:56:53;11.20;99.90
13462;DHT22;6803;45.264;5.468;2022-09-27T04:59:24;11.10;99.90
13462;DHT22;6803;45.264;5.468;2022-09-27T05:01:55;11.10;99.90
13462;DHT22;6803;45.264;5.468;2022-09-27T05:04:28;11.10;99.90
13462;DHT22;6803;45.264;5.468;2022-09-27T05:07:00;11.10;99.90
13462;DHT22;6803;45.264;5.468;2022-09-27T05:09:30;11.10;99.90
13462;DHT22;6803;45.264;5.468;2022-09-27T05:12:02;11.00;99.90
13462;DHT22;6803;45.264;5.468;2022-09-27T05:14:34;11.00;99.90
13462;DHT22;6803;45.264;5.468;2022-09-27T05:17:05;11.10;99.90
13462;DHT22;6803;45.264;5.468;2022-09-27T05:19:36;11.00;99.90
13462;DHT22;6803;45.264;5.468;2022-09-27T05:22:07;11.10;99.90
13462;DHT22;6803;45.264;5.468;2022-09-27T05:24:38;11.10;99.90
13462;DHT22;6803;45.264;5.468;2022-09-27T05:27:10;11.20;99.90
13462;DHT22;6803;45.264;5.468;2022-09-27T05:29:44;11.00;99.90
13462;DHT22;6803;45.264;5.468;2022-09-27T05:32:14;11.00;99.90
13462;DHT22;6803;45.264;5.468;2022-09-27T05:34:45;11.00;99.90
13462;DHT22;6803;45.264;5.468;2022-09-27T05:37:16;11.10;99.90
13462;DHT22;6803;45.264;5.468;2022-09-27T05:42:24;11.00;99.90
13462;DHT22;6803;45.264;5.468;2022-09-27T05:44:54;11.00;99.90
13462;DHT22;6803;45.264;5.468;2022-09-27T05:47:25;11.00;99.90
13462;DHT22;6803;45.264;5.468;2022-09-27T05:49:56;10.90;99.90
13462;DHT22;6803;45.264;5.468;2022-09-27T05:52:27;10.90;99.90
13462;DHT22;6803;45.264;5.468;2022-09-27T05:54:58;10.90;99.90
13462;DHT22;6803;45.264;5.468;2022-09-27T05:57:28;10.90;99.90
13462;DHT22;6803;45.264;5.468;2022-09-27T05:59:59;10.80;99.90
13462;DHT22;6803;45.264;5.468;2022-09-27T06:02:30;10.90;99.90
13462;DHT22;6803;45.264;5.468;2022-09-27T06:05:02;10.80;99.90
13462;DHT22;6803;45.264;5.468;2022-09-27T06:07:33;10.80;99.90
13462;DHT22;6803;45.264;5.468;2022-09-27T06:10:04;10.70;99.90
13462;DHT22;6803;45.264;5.468;2022-09-27T06:12:35;10.60;99.90
13462;DHT22;6803;45.264;5.468;2022-09-27T06:15:08;10.60;99.90
13462;DHT22;6803;45.264;5.468;2022-09-27T06:17:39;10.50;99.90
13462;DHT22;6803;45.264;5.468;2022-09-27T06:20:10;10.60;99.90
13462;DHT22;6803;45.264;5.468;2022-09-27T06:22:41;10.60;99.90
13462;DHT22;6803;45.264;5.468;2022-09-27T06:25:13;10.70;99.90
13462;DHT22;6803;45.264;5.468;2022-09-27T06:27:44;10.70;99.90
13462;DHT22;6803;45.264;5.468;2022-09-27T06:30:14;10.80;99.90
13462;DHT22;6803;45.264;5.468;2022-09-27T06:32:47;10.80;99.90
13462;DHT22;6803;45.264;5.468;2022-09-27T06:35:17;10.80;99.90
13462;DHT22;6803;45.264;5.468;2022-09-27T06:37:48;11.00;99.90
13462;DHT22;6803;45.264;5.468;2022-09-27T06:40:19;11.00;99.90
13462;DHT22;6803;45.264;5.468;2022-09-27T06:42:50;11.10;99.90
13462;DHT22;6803;45.264;5.468;2022-09-27T06:45:21;11.20;99.90
13462;DHT22;6803;45.264;5.468;2022-09-27T06:47:51;11.30;99.90
13462;DHT22;6803;45.264;5.468;2022-09-27T06:50:22;11.40;99.90
13462;DHT22;6803;45.264;5.468;2022-09-27T06:52:53;11.50;99.90
13462;DHT22;6803;45.264;5.468;2022-09-27T06:55:24;11.50;99.90
13462;DHT22;6803;45.264;5.468;2022-09-27T06:57:55;11.50;99.90
13462;DHT22;6803;45.264;5.468;2022-09-27T07:00:44;11.40;99.90
13462;DHT22;6803;45.264;5.468;2022-09-27T07:03:16;11.50;99.90
13462;DHT22;6803;45.264;5.468;2022-09-27T07:05:56;11.60;99.90
13462;DHT22;6803;45.264;5.468;2022-09-27T07:08:27;11.70;99.90
13462;DHT22;6803;45.264;5.468;2022-09-27T07:11:03;11.60;99.90
13462;DHT22;6803;45.264;5.468;2022-09-27T07:13:34;11.70;99.90
13462;DHT22;6803;45.264;5.468;2022-09-27T07:16:07;11.70;99.90
13462;DHT22;6803;45.264;5.468;2022-09-27T07:18:37;11.70;99.90
13462;DHT22;6803;45.264;5.468;2022-09-27T07:21:09;11.70;99.90
13462;DHT22;6803;45.264;5.468;2022-09-27T07:23:41;11.60;99.90
13462;DHT22;6803;45.264;5.468;2022-09-27T07:26:11;11.60;99.90
13462;DHT22;6803;45.264;5.468;2022-09-27T07:28:42;11.70;99.90
13462;DHT22;6803;45.264;5.468;2022-09-27T07:31:14;11.80;99.90
13462;DHT22;6803;45.264;5.468;2022-09-27T07:33:45;11.80;99.90
13462;DHT22;6803;45.264;5.468;2022-09-27T07:36:16;11.90;99.90
13462;DHT22;6803;45.264;5.468;2022-09-27T07:38:47;12.00;99.90
13462;DHT22;6803;45.264;5.468;2022-09-27T07:41:17;12.20;99.90
13462;DHT22;6803;45.264;5.468;2022-09-27T07:43:48;12.20;99.90
13462;DHT22;6803;45.264;5.468;2022-09-27T07:46:19;12.30;99.90
13462;DHT22;6803;45.264;5.468;2022-09-27T07:48:52;12.30;99.90
13462;DHT22;6803;45.264;5.468;2022-09-27T07:51:22;12.50;99.90
13462;DHT22;6803;45.264;5.468;2022-09-27T07:53:53;12.50;99.90
13462;DHT22;6803;45.264;5.468;2022-09-27T07:56:24;12.50;99.90
13462;DHT22;6803;45.264;5.468;2022-09-27T07:58:55;12.60;99.90
13462;DHT22;6803;45.264;5.468;2022-09-27T08:01:26;12.60;99.90
13462;DHT22;6803;45.264;5.468;2022-09-27T08:03:57;12.60;99.90
13462;DHT22;6803;45.264;5.468;2022-09-27T08:06:28;12.60;99.90
13462;DHT22;6803;45.264;5.468;2022-09-27T08:08:59;12.60;99.90
13462;DHT22;6803;45.264;5.468;2022-09-27T08:11:31;12.40;99.90
13462;DHT22;6803;45.264;5.468;2022-09-27T08:14:02;12.60;99.90
13462;DHT22;6803;45.264;5.468;2022-09-27T08:16:34;12.70;99.90
13462;DHT22;6803;45.264;5.468;2022-09-27T08:19:05;12.80;99.90
13462;DHT22;6803;45.264;5.468;2022-09-27T08:21:35;12.90;99.90
13462;DHT22;6803;45.264;5.468;2022-09-27T08:24:06;13.00;99.90
13462;DHT22;6803;45.264;5.468;2022-09-27T08:26:37;13.10;99.90
13462;DHT22;6803;45.264;5.468;2022-09-27T08:29:08;13.10;99.90
13462;DHT22;6803;45.264;5.468;2022-09-27T08:31:39;13.00;99.90
13462;DHT22;6803;45.264;5.468;2022-09-27T08:34:10;13.10;99.90
13462;DHT22;6803;45.264;5.468;2022-09-27T08:36:42;13.10;99.90
13462;DHT22;6803;45.264;5.468;2022-09-27T08:39:13;13.20;99.90
13462;DHT22;6803;45.264;5.468;2022-09-27T08:41:46;13.40;99.90
13462;DHT22;6803;45.264;5.468;2022-09-27T08:44:21;13.50;99.90
13462;DHT22;6803;45.264;5.468;2022-09-27T08:46:56;13.60;99.90
13462;DHT22;6803;45.264;5.468;2022-09-27T08:49:31;13.50;99.90
13462;DHT22;6803;45.264;5.468;2022-09-27T08:52:05;13.70;99.90
13462;DHT22;6803;45.264;5.468;2022-09-27T08:54:37;13.90;99.90
13462;DHT22;6803;45.264;5.468;2022-09-27T08:57:11;13.90;99.90
13462;DHT22;6803;45.264;5.468;2022-09-27T08:59:44;14.00;99.90
13462;DHT22;6803;45.264;5.468;2022-09-27T09:02:18;13.80;99.90
13462;DHT22;6803;45.264;5.468;2022-09-27T09:04:51;14.00;99.90
13462;DHT22;6803;45.264;5.468;2022-09-27T09:07:46;14.20;99.90
13462;DHT22;6803;45.264;5.468;2022-09-27T09:10:26;14.40;99.90
13462;DHT22;6803;45.264;5.468;2022-09-27T09:13:17;14.10;99.90
13462;DHT22;6803;45.264;5.468;2022-09-27T09:15:51;14.00;99.90
13462;DHT22;6803;45.264;5.468;2022-09-27T09:18:32;13.80;99.90
13462;DHT22;6803;45.264;5.468;2022-09-27T09:21:08;13.50;99.90
13462;DHT22;6803;45.264;5.468;2022-09-27T09:26:43;13.00;99.90
13462;DHT22;6803;45.264;5.468;2022-09-27T09:29:25;13.20;99.90
13462;DHT22;6803;45.264;5.468;2022-09-27T09:32:17;13.30;99.90
13462;DHT22;6803;45.264;5.468;2022-09-27T09:34:51;13.50;99.90
13462;DHT22;6803;45.264;5.468;2022-09-27T09:37:27;13.50;99.90
13462;DHT22;6803;45.264;5.468;2022-09-27T09:39:59;13.70;99.90
13462;DHT22;6803;45.264;5.468;2022-09-27T09:42:36;13.70;99.90
13462;DHT22;6803;45.264;5.468;2022-09-27T09:45:13;13.80;99.90
13462;DHT22;6803;45.264;5.468;2022-09-27T09:47:47;13.90;99.90
13462;DHT22;6803;45.264;5.468;2022-09-27T09:50:21;14.00;99.90
13462;DHT22;6803;45.264;5.468;2022-09-27T09:52:55;14.10;99.90
13462;DHT22;6803;45.264;5.468;2022-09-27T09:55:30;14.00;99.90
13462;DHT22;6803;45.264;5.468;2022-09-27T09:58:21;14.20;99.90
13462;DHT22;6803;45.264;5.468;2022-09-27T10:00:56;14.30;99.90
13462;DHT22;6803;45.264;5.468;2022-09-27T10:03:27;14.70;99.90
13462;DHT22;6803;45.264;5.468;2022-09-27T10:05:58;15.00;99.90
13462;DHT22;6803;45.264;5.468;2022-09-27T10:08:29;15.00;99.90
13462;DHT22;6803;45.264;5.468;2022-09-27T10:11:01;15.30;99.90
13462;DHT22;6803;45.264;5.468;2022-09-27T10:13:34;15.30;99.90
13462;DHT22;6803;45.264;5.468;2022-09-27T10:16:08;15.20;99.90
13462;DHT22;6803;45.264;5.468;2022-09-27T10:18:40;15.40;99.90
13462;DHT22;6803;45.264;5.468;2022-09-27T10:21:16;15.00;99.90
13462;DHT22;6803;45.264;5.468;2022-09-27T10:24:05;14.50;99.90
13462;DHT22;6803;45.264;5.468;2022-09-27T10:26:41;14.30;99.90
13462;DHT22;6803;45.264;5.468;2022-09-27T10:29:21;14.30;99.90
13462;DHT22;6803;45.264;5.468;2022-09-27T10:31:53;14.40;99.90
13462;DHT22;6803;45.264;5.468;2022-09-27T10:34:30;14.40;99.90
13462;DHT22;6803;45.264;5.468;2022-09-27T10:37:05;14.50;99.90
13462;DHT22;6803;45.264;5.468;2022-09-27T10:39:36;14.70;99.90
13462;DHT22;6803;45.264;5.468;2022-09-27T10:42:21;14.90;99.90
13462;DHT22;6803;45.264;5.468;2022-09-27T10:44:52;15.00;99.90
13462;DHT22;6803;45.264;5.468;2022-09-27T10:47:24;15.30;99.90
13462;DHT22;6803;45.264;5.468;2022-09-27T10:50:02;15.60;99.90
13462;DHT22;6803;45.264;5.468;2022-09-27T10:52:34;15.70;99.90
13462;DHT22;6803;45.264;5.468;2022-09-27T10:55:13;15.80;99.90
13462;DHT22;6803;45.264;5.468;2022-09-27T10:57:47;16.00;99.90
13462;DHT22;6803;45.264;5.468;2022-09-27T11:00:23;15.90;99.90
13462;DHT22;6803;45.264;5.468;2022-09-27T11:02:55;15.70;99.90
13462;DHT22;6803;45.264;5.468;2022-09-27T11:05:35;15.50;99.90
13462;DHT22;6803;45.264;5.468;2022-09-27T11:08:23;15.20;99.90
13462;DHT22;6803;45.264;5.468;2022-09-27T11:11:03;15.20;99.90
13462;DHT22;6803;45.264;5.468;2022-09-27T11:13:35;15.20;99.90
13462;DHT22;6803;45.264;5.468;2022-09-27T11:19:06;15.00;99.90
13462;DHT22;6803;45.264;5.468;2022-09-27T11:21:43;15.30;99.90
13462;DHT22;6803;45.264;5.468;2022-09-27T11:24:22;15.80;99.90
13462;DHT22;6803;45.264;5.468;2022-09-27T11:26:59;16.30;99.90
13462;DHT22;6803;45.264;5.468;2022-09-27T11:29:33;16.40;99.90
13462;DHT22;6803;45.264;5.468;2022-09-27T11:32:12;17.00;99.90
13462;DHT22;6803;45.264;5.468;2022-09-27T11:35:09;16.70;99.90
13462;DHT22;6803;45.264;5.468;2022-09-27T11:37:45;16.40;99.90
13462;DHT22;6803;45.264;5.468;2022-09-27T11:40:24;16.30;99.90
13462;DHT22;6803;45.264;5.468;2022-09-27T11:43:23;16.20;99.90
13462;DHT22;6803;45.264;5.468;2022-09-27T11:45:59;16.10;99.90
13462;DHT22;6803;45.264;5.468;2022-09-27T11:48:43;15.80;99.90
13462;DHT22;6803;45.264;5.468;2022-09-27T11:51:25;15.90;99.90
13462;DHT22;6803;45.264;5.468;2022-09-27T11:54:24;15.70;99.90
13462;DHT22;6803;45.264;5.468;2022-09-27T11:56:58;15.50;99.90
13462;DHT22;6803;45.264;5.468;2022-09-27T12:03:27;15.50;99.90
13462;DHT22;6803;45.264;5.468;2022-09-27T12:06:05;15.30;99.90
13462;DHT22;6803;45.264;5.468;2022-09-27T12:08:46;15.30;99.90
13462;DHT22;6803;45.264;5.468;2022-09-27T12:11:22;15.00;99.90
13462;DHT22;6803;45.264;5.468;2022-09-27T12:13:56;15.10;99.90
13462;DHT22;6803;45.264;5.468;2022-09-27T12:16:28;15.10;99.90
13462;DHT22;6803;45.264;5.468;2022-09-27T12:19:01;15.10;99.90
13462;DHT22;6803;45.264;5.468;2022-09-27T12:21:32;15.10;99.90
13462;DHT22;6803;45.264;5.468;2022-09-27T12:24:05;15.20;99.90
13462;DHT22;6803;45.264;5.468;2022-09-27T12:26:37;15.30;99.90
13462;DHT22;6803;45.264;5.468;2022-09-27T12:29:14;15.40;99.90
13462;DHT22;6803;45.264;5.468;2022-09-27T12:31:48;15.50;99.90
13462;DHT22;6803;45.264;5.468;2022-09-27T12:34:23;15.60;99.90
13462;DHT22;6803;45.264;5.468;2022-09-27T12:36:57;15.60;99.90
13462;DHT22;6803;45.264;5.468;2022-09-27T12:39:35;15.50;99.90
13462;DHT22;6803;45.264;5.468;2022-09-27T12:42:05;15.40;99.90
13462;DHT22;6803;45.264;5.468;2022-09-27T12:44:38;15.50;99.90
13462;DHT22;6803;45.264;5.468;2022-09-27T12:47:17;15.90;99.90
13462;DHT22;6803;45.264;5.468;2022-09-27T12:49:53;16.40;99.90
13462;DHT22;6803;45.264;5.468;2022-09-27T12:52:26;16.80;99.90
13462;DHT22;6803;45.264;5.468;2022-09-27T12:55:19;17.20;99.90
13462;DHT22;6803;45.264;5.468;2022-09-27T12:58:01;17.80;99.90
13462;DHT22;6803;45.264;5.468;2022-09-27T13:00:32;18.30;99.90
13462;DHT22;6803;45.264;5.468;2022-09-27T13:03:35;18.80;99.90
13462;DHT22;6803;45.264;5.468;2022-09-27T13:06:35;18.40;99.90
13462;DHT22;6803;45.264;5.468;2022-09-27T13:12:14;18.50;99.90
13462;DHT22;6803;45.264;5.468;2022-09-27T13:14:54;18.10;99.90
13462;DHT22;6803;45.264;5.468;2022-09-27T13:17:48;17.80;99.90
13462;DHT22;6803;45.264;5.468;2022-09-27T13:20:53;18.40;99.90
13462;DHT22;6803;45.264;5.468;2022-09-27T13:26:47;18.60;99.90
13462;DHT22;6803;45.264;5.468;2022-09-27T13:29:30;18.70;99.90
13462;DHT22;6803;45.264;5.468;2022-09-27T13:32:17;18.90;99.90
13462;DHT22;6803;45.264;5.468;2022-09-27T13:34:51;17.10;99.90
13462;DHT22;6803;45.264;5.468;2022-09-27T13:37:47;17.00;99.90
13462;DHT22;6803;45.264;5.468;2022-09-27T13:40:33;17.10;99.90
13462;DHT22;6803;45.264;5.468;2022-09-27T13:43:50;17.20;99.90
13462;DHT22;6803;45.264;5.468;2022-09-27T13:46:23;17.00;99.90
13462;DHT22;6803;45.264;5.468;2022-09-27T13:48:57;17.50;99.90
13462;DHT22;6803;45.264;5.468;2022-09-27T13:51:39;17.90;99.90
13462;DHT22;6803;45.264;5.468;2022-09-27T13:57:02;17.10;99.90
13462;DHT22;6803;45.264;5.468;2022-09-27T13:59:36;17.00;99.90
13462;DHT22;6803;45.264;5.468;2022-09-27T14:02:18;16.70;99.90
13462;DHT22;6803;45.264;5.468;2022-09-27T14:04:50;16.30;99.90
13462;DHT22;6803;45.264;5.468;2022-09-27T14:07:23;15.80;99.90
13462;DHT22;6803;45.264;5.468;2022-09-27T14:09:57;15.80;99.90
13462;DHT22;6803;45.264;5.468;2022-09-27T14:12:31;15.60;99.90
13462;DHT22;6803;45.264;5.468;2022-09-27T14:15:23;15.80;99.90
13462;DHT22;6803;45.264;5.468;2022-09-27T14:17:55;15.80;99.90
13462;DHT22;6803;45.264;5.468;2022-09-27T14:20:34;15.80;99.90
13462;DHT22;6803;45.264;5.468;2022-09-27T14:23:11;15.90;99.90
13462;DHT22;6803;45.264;5.468;2022-09-27T14:25:46;15.90;99.90
13462;DHT22;6803;45.264;5.468;2022-09-27T14:28:24;15.90;99.90
13462;DHT22;6803;45.264;5.468;2022-09-27T14:31:13;15.40;99.90
13462;DHT22;6803;45.264;5.468;2022-09-27T14:33:46;15.60;99.90
13462;DHT22;6803;45.264;5.468;2022-09-27T14:36:24;15.80;99.90
13462;DHT22;6803;45.264;5.468;2022-09-27T14:39:19;15.80;99.90
13462;DHT22;6803;45.264;5.468;2022-09-27T14:41:51;15.90;99.90
13462;DHT22;6803;45.264;5.468;2022-09-27T14:44:21;16.10;99.90
13462;DHT22;6803;45.264;5.468;2022-09-27T14:47:16;16.30;99.90
13462;DHT22;6803;45.264;5.468;2022-09-27T14:49:48;16.10;99.90
13462;DHT22;6803;45.264;5.468;2022-09-27T14:52:21;16.40;99.90
13462;DHT22;6803;45.264;5.468;2022-09-27T14:54:59;16.40;99.90
13462;DHT22;6803;45.264;5.468;2022-09-27T14:57:31;16.40;99.90
13462;DHT22;6803;45.264;5.468;2022-09-27T15:00:13;16.30;99.90
13462;DHT22;6803;45.264;5.468;2022-09-27T15:02:41;16.30;99.90
13462;DHT22;6803;45.264;5.468;2022-09-27T15:05:17;16.20;99.90
13462;DHT22;6803;45.264;5.468;2022-09-27T15:07:49;16.00;99.90
13462;DHT22;6803;45.264;5.468;2022-09-27T15:10:22;16.00;99.90
13462;DHT22;6803;45.264;5.468;2022-09-27T15:12:56;16.00;99.90
13462;DHT22;6803;45.264;5.468;2022-09-27T15:15:30;16.00;99.90
13462;DHT22;6803;45.264;5.468;2022-09-27T15:18:02;15.90;99.90
13462;DHT22;6803;45.264;5.468;2022-09-27T15:20:35;15.70;99.90
13462;DHT22;6803;45.264;5.468;2022-09-27T15:23:06;15.40;99.90
13462;DHT22;6803;45.264;5.468;2022-09-27T15:25:40;15.30;99.90
13462;DHT22;6803;45.264;5.468;2022-09-27T15:28:15;15.30;99.90
13462;DHT22;6803;45.264;5.468;2022-09-27T15:30:50;15.30;99.90
13462;DHT22;6803;45.264;5.468;2022-09-27T15:33:24;15.40;99.90
13462;DHT22;6803;45.264;5.468;2022-09-27T15:35:56;15.50;99.90
13462;DHT22;6803;45.264;5.468;2022-09-27T15:38:30;15.50;99.90
13462;DHT22;6803;45.264;5.468;2022-09-27T15:41:12;15.50;99.90
13462;DHT22;6803;45.264;5.468;2022-09-27T15:43:44;15.50;99.90
13462;DHT22;6803;45.264;5.468;2022-09-27T15:46:34;15.40;99.90
13462;DHT22;6803;45.264;5.468;2022-09-27T15:49:29;15.30;99.90
13462;DHT22;6803;45.264;5.468;2022-09-27T15:52:02;15.10;99.90
13462;DHT22;6803;45.264;5.468;2022-09-27T15:54:35;15.00;99.90
13462;DHT22;6803;45.264;5.468;2022-09-27T15:57:08;14.90;99.90
13462;DHT22;6803;45.264;5.468;2022-09-27T15:59:38;14.70;99.90
13462;DHT22;6803;45.264;5.468;2022-09-27T16:02:13;14.40;99.90
13462;DHT22;6803;45.264;5.468;2022-09-27T16:04:45;14.30;99.90
13462;DHT22;6803;45.264;5.468;2022-09-27T16:07:16;14.30;99.90
13462;DHT22;6803;45.264;5.468;2022-09-27T16:09:47;14.30;99.90
13462;DHT22;6803;45.264;5.468;2022-09-27T16:12:20;14.30;99.90
13462;DHT22;6803;45.264;5.468;2022-09-27T16:14:50;14.30;99.90
13462;DHT22;6803;45.264;5.468;2022-09-27T16:17:22;14.30;99.90
13462;DHT22;6803;45.264;5.468;2022-09-27T16:19:52;14.40;99.90
13462;DHT22;6803;45.264;5.468;2022-09-27T16:22:23;14.30;99.90
13462;DHT22;6803;45.264;5.468;2022-09-27T16:24:54;14.40;99.90
13462;DHT22;6803;45.264;5.468;2022-09-27T16:27:25;14.50;99.90
13462;DHT22;6803;45.264;5.468;2022-09-27T16:29:57;14.50;99.90
13462;DHT22;6803;45.264;5.468;2022-09-27T16:32:28;14.50;99.90
13462;DHT22;6803;45.264;5.468;2022-09-27T16:34:59;14.30;99.90
13462;DHT22;6803;45.264;5.468;2022-09-27T16:37:30;14.00;99.90
13462;DHT22;6803;45.264;5.468;2022-09-27T16:40:01;14.00;99.90
13462;DHT22;6803;45.264;5.468;2022-09-27T16:42:32;13.90;99.90
13462;DHT22;6803;45.264;5.468;2022-09-27T16:45:04;13.90;99.90
13462;DHT22;6803;45.264;5.468;2022-09-27T16:47:37;13.80;99.90
13462;DHT22;6803;45.264;5.468;2022-09-27T16:50:12;13.90;99.90
13462;DHT22;6803;45.264;5.468;2022-09-27T16:53:01;13.90;99.90
13462;DHT22;6803;45.264;5.468;2022-09-27T16:55:34;13.90;99.90